Time;durP1;ratioP1;P1;durP2;ratioP2;P2;SDS_P1;SDS_P2;PMS_P1;PMS_P2;Temp;Humidity;BMP_temperature;BMP_pressure;BME280_temperature;BME280_humidity;BME280_pressure;Samples;Min_cycle;Max_cycle;Signal;HPM_P1;HPM_P2
2022/04/12 00:00:30;;;;;;;16.98;15.13;;;8.50;99.90;;;;;;5085902;28;20155;-56
2022/04/12 00:02:57;;;;;;;18.40;16.50;;;8.40;99.90;;;;;;5075278;28;20564;-56
2022/04/12 00:05:23;;;;;;;16.58;14.88;;;8.40;99.90;;;;;;5066776;28;20097;-57
2022/04/12 00:07:49;;;;;;;18.30;16.38;;;8.40;99.90;;;;;;5042801;28;20052;-57
2022/04/12 00:10:16;;;;;;;17.40;15.05;;;8.40;99.90;;;;;;5076591;28;20065;-56
2022/04/12 00:12:43;;;;;;;17.02;13.43;;;8.30;99.90;;;;;;5075195;28;20114;-56
2022/04/12 00:15:10;;;;;;;18.30;16.35;;;8.30;99.90;;;;;;5064873;28;20139;-57
2022/04/12 00:20:26;;;;;;;18.27;16.35;;;8.20;99.90;;;;;;5063873;28;20047;-57
2022/04/12 00:22:56;;;;;;;16.90;14.93;;;8.20;99.90;;;;;;5072142;28;20111;-57
2022/04/12 00:25:24;;;;;;;19.45;15.82;;;8.20;99.90;;;;;;5065215;28;20510;-57
2022/04/12 00:27:52;;;;;;;17.92;15.20;;;8.20;99.90;;;;;;5074547;28;20458;-56
2022/04/12 00:30:19;;;;;;;19.55;16.00;;;8.10;99.90;;;;;;5083301;28;20095;-57
2022/04/12 00:32:46;;;;;;;17.67;14.93;;;8.10;99.90;;;;;;5074984;28;20079;-57
2022/04/12 00:35:13;;;;;;;17.75;15.85;;;8.10;99.90;;;;;;5104542;28;20056;-56
2022/04/12 00:37:39;;;;;;;17.60;14.80;;;8.10;99.90;;;;;;5066965;28;20051;-56
2022/04/12 00:40:06;;;;;;;17.80;15.35;;;8.00;99.90;;;;;;5065827;28;20419;-56
2022/04/12 00:47:26;;;;;;;15.43;13.70;;;8.00;99.90;;;;;;5025684;23;20057;-61
2022/04/12 00:49:52;;;;;;;15.68;14.07;;;8.00;99.90;;;;;;4988016;28;20097;-61
2022/04/12 00:52:19;;;;;;;17.13;14.77;;;7.90;99.90;;;;;;5018320;28;20049;-61
2022/04/12 00:54:47;;;;;;;17.52;14.77;;;7.90;99.90;;;;;;5014639;28;20065;-61
2022/04/12 00:57:14;;;;;;;16.40;14.38;;;7.90;99.90;;;;;;5004436;28;20053;-61
2022/04/12 00:59:43;;;;;;;18.15;14.85;;;7.90;99.90;;;;;;5019102;28;20077;-56
2022/04/12 01:02:09;;;;;;;16.08;14.20;;;7.80;99.90;;;;;;5004518;28;20539;-56
2022/04/12 01:04:35;;;;;;;16.70;14.23;;;7.80;99.90;;;;;;5020320;28;20053;-56
2022/04/12 01:07:02;;;;;;;16.83;13.93;;;7.80;99.90;;;;;;5002102;28;20064;-56
2022/04/12 01:09:28;;;;;;;15.43;13.75;;;7.70;99.90;;;;;;5019531;28;20053;-56
2022/04/12 01:11:56;;;;;;;14.50;12.70;;;7.70;99.90;;;;;;5005009;28;20064;-56
2022/04/12 01:14:24;;;;;;;16.08;12.63;;;7.70;99.90;;;;;;5036441;28;20053;-56
2022/04/12 01:16:51;;;;;;;16.98;14.07;;;7.70;99.90;;;;;;5023041;28;20068;-56
2022/04/12 01:19:17;;;;;;;17.13;13.77;;;7.70;99.90;;;;;;5021961;28;20049;-56
2022/04/12 01:21:52;;;;;;;15.65;13.32;;;7.70;99.90;;;;;;5018345;28;20042;-61
2022/04/12 01:24:19;;;;;;;14.10;12.60;;;7.60;99.90;;;;;;5022161;28;20061;-56
2022/04/12 01:26:46;;;;;;;16.23;13.05;;;7.60;99.90;;;;;;5022256;28;20049;-56
2022/04/12 01:29:13;;;;;;;17.08;13.48;;;7.60;99.90;;;;;;5001640;28;20124;-56
2022/04/12 01:31:39;;;;;;;16.13;13.50;;;7.60;99.90;;;;;;5024498;28;20045;-60
2022/04/12 01:34:05;;;;;;;15.00;13.38;;;7.60;99.90;;;;;;5023694;28;20124;-56
2022/04/12 01:36:31;;;;;;;16.35;13.65;;;7.60;99.90;;;;;;5005256;28;20787;-61
2022/04/12 01:38:57;;;;;;;19.08;12.35;;;7.50;99.90;;;;;;5021976;28;20045;-62
2022/04/12 01:41:23;;;;;;;17.48;13.32;;;7.50;99.90;;;;;;5024735;28;20053;-57
2022/04/12 01:43:49;;;;;;;14.65;13.13;;;7.50;99.90;;;;;;5023818;28;20807;-56
2022/04/12 01:46:15;;;;;;;14.90;12.27;;;7.50;99.90;;;;;;5006546;28;20588;-56
2022/04/12 01:48:41;;;;;;;14.45;12.95;;;7.50;99.90;;;;;;5007615;28;20091;-56
2022/04/12 01:51:07;;;;;;;13.65;12.25;;;7.50;99.90;;;;;;5017308;28;20049;-56
2022/04/12 01:53:33;;;;;;;15.88;13.50;;;7.40;99.90;;;;;;5017639;28;20646;-61
2022/04/12 01:55:59;;;;;;;15.38;12.85;;;7.40;99.90;;;;;;5021574;28;20053;-56
2022/04/12 01:58:25;;;;;;;16.65;12.88;;;7.30;99.90;;;;;;5024336;28;20041;-61
2022/04/12 02:00:51;;;;;;;14.93;13.25;;;7.30;99.90;;;;;;5005505;28;20108;-61
2022/04/12 02:03:17;;;;;;;15.18;12.88;;;7.30;99.90;;;;;;5025282;28;20107;-61
2022/04/12 02:05:43;;;;;;;18.55;13.10;;;7.20;99.90;;;;;;5014873;28;20041;-61
2022/04/12 02:08:10;;;;;;;16.55;12.23;;;7.20;99.90;;;;;;5021493;28;20052;-61
2022/04/12 02:10:36;;;;;;;15.23;13.63;;;7.20;99.90;;;;;;5022540;28;20053;-56
2022/04/12 02:13:02;;;;;;;15.20;12.95;;;7.10;99.90;;;;;;4986349;28;20489;-57
2022/04/12 02:15:28;;;;;;;16.00;12.13;;;7.10;99.90;;;;;;5020377;28;20080;-56
2022/04/12 02:17:54;;;;;;;15.15;13.05;;;7.10;99.90;;;;;;5018704;28;20052;-56
2022/04/12 02:20:20;;;;;;;17.63;13.13;;;7.10;99.90;;;;;;5022067;28;20049;-56
2022/04/12 02:22:46;;;;;;;17.42;13.00;;;7.10;99.90;;;;;;5017531;28;20041;-56
2022/04/12 02:25:12;;;;;;;15.32;13.65;;;7.00;99.90;;;;;;5021762;28;20069;-56
2022/04/12 02:27:38;;;;;;;14.43;12.23;;;7.00;99.90;;;;;;5005387;28;20057;-56
2022/04/12 02:30:06;;;;;;;17.50;12.98;;;7.00;99.90;;;;;;5024070;28;20053;-56
2022/04/12 02:32:32;;;;;;;15.07;12.60;;;7.00;99.90;;;;;;5021865;28;20061;-56
2022/04/12 02:35:00;;;;;;;16.63;13.50;;;7.00;99.90;;;;;;5017263;28;20046;-56
2022/04/12 02:37:27;;;;;;;16.85;14.25;;;6.90;99.90;;;;;;5014708;28;20057;-57
2022/04/12 02:39:53;;;;;;;15.98;13.15;;;6.90;99.90;;;;;;5022814;28;20050;-56
2022/04/12 02:42:19;;;;;;;14.35;12.60;;;6.90;99.90;;;;;;5023756;28;20060;-56
2022/04/12 02:44:45;;;;;;;15.85;12.32;;;6.90;99.90;;;;;;5021046;28;20745;-56
2022/04/12 02:47:11;;;;;;;17.98;13.45;;;6.90;99.90;;;;;;5002476;28;20084;-56
2022/04/12 02:49:37;;;;;;;16.58;13.50;;;6.80;99.90;;;;;;5021171;28;20544;-56
2022/04/12 02:52:04;;;;;;;15.95;12.65;;;6.80;99.90;;;;;;5022211;28;20055;-57
2022/04/12 02:54:30;;;;;;;16.65;14.15;;;6.70;99.90;;;;;;5019673;28;20456;-56
2022/04/12 02:56:57;;;;;;;17.35;14.18;;;6.70;99.90;;;;;;5022274;28;20103;-57
2022/04/12 02:59:23;;;;;;;16.13;13.30;;;6.70;99.90;;;;;;5017575;28;20128;-56
2022/04/12 03:01:50;;;;;;;14.98;13.48;;;6.60;99.90;;;;;;5022435;28;20476;-57
2022/04/12 03:04:16;;;;;;;13.98;12.45;;;6.60;99.90;;;;;;5021391;28;20562;-62
2022/04/12 03:06:42;;;;;;;15.02;13.40;;;6.50;99.90;;;;;;5017205;28;20089;-62
2022/04/12 03:09:08;;;;;;;16.58;13.13;;;6.50;99.90;;;;;;5014954;28;20048;-62
2022/04/12 03:11:35;;;;;;;17.48;14.02;;;6.50;99.90;;;;;;5020495;28;20050;-57
2022/04/12 03:14:02;;;;;;;14.70;13.05;;;6.40;99.90;;;;;;5023685;28;20053;-57
2022/04/12 03:16:28;;;;;;;19.00;13.48;;;6.40;99.90;;;;;;5018264;28;20057;-57
2022/04/12 03:18:55;;;;;;;14.07;12.57;;;6.40;99.90;;;;;;5001555;28;20041;-56
2022/04/12 03:21:21;;;;;;;16.23;13.90;;;6.30;99.90;;;;;;4990857;28;20083;-57
2022/04/12 03:23:47;;;;;;;16.00;14.30;;;6.30;99.90;;;;;;5019260;28;20076;-56
2022/04/12 03:26:13;;;;;;;17.27;14.20;;;6.30;99.90;;;;;;4995624;28;20208;-57
2022/04/12 03:28:39;;;;;;;15.05;13.48;;;6.30;99.90;;;;;;5021035;28;20046;-57
2022/04/12 03:31:05;;;;;;;15.98;13.60;;;6.30;99.90;;;;;;5001551;28;20061;-57
2022/04/12 03:33:31;;;;;;;16.73;13.10;;;6.30;99.90;;;;;;5022132;28;20060;-56
2022/04/12 03:35:57;;;;;;;17.13;14.30;;;6.30;99.90;;;;;;5021072;28;20046;-57
2022/04/12 03:38:23;;;;;;;17.33;13.48;;;6.30;99.90;;;;;;5013606;28;20077;-57
2022/04/12 03:40:49;;;;;;;16.48;13.40;;;6.30;99.90;;;;;;4997874;28;20148;-57
2022/04/12 03:43:15;;;;;;;17.05;14.30;;;6.30;99.90;;;;;;5015811;28;20051;-62
2022/04/12 03:45:41;;;;;;;15.77;13.27;;;6.30;99.90;;;;;;5020889;28;20053;-62
2022/04/12 03:48:07;;;;;;;17.33;13.88;;;6.40;99.90;;;;;;5015240;28;20080;-62
2022/04/12 03:50:34;;;;;;;17.60;14.10;;;6.40;99.90;;;;;;5020628;28;20045;-56
2022/04/12 03:53:02;;;;;;;14.77;13.32;;;6.40;99.90;;;;;;5009939;28;20853;-56
2022/04/12 03:55:31;;;;;;;15.73;13.88;;;6.40;99.90;;;;;;4991440;28;20053;-62
2022/04/12 03:57:59;;;;;;;17.55;13.02;;;6.40;99.90;;;;;;4995334;28;20061;-63
2022/04/12 04:00:25;;;;;;;15.65;13.90;;;6.40;99.90;;;;;;5021354;28;20099;-63
2022/04/12 04:02:52;;;;;;;14.38;11.75;;;6.40;99.90;;;;;;5017997;28;20053;-62
2022/04/12 04:05:18;;;;;;;14.55;13.05;;;6.40;99.90;;;;;;5021912;28;20177;-63
2022/04/12 04:07:44;;;;;;;16.00;13.30;;;6.40;99.90;;;;;;4979060;28;20553;-63
2022/04/12 04:10:10;;;;;;;13.70;12.25;;;6.40;99.90;;;;;;5016163;28;20052;-63
2022/04/12 04:12:36;;;;;;;16.75;13.77;;;6.40;99.90;;;;;;5014755;28;20069;-63
2022/04/12 04:15:05;;;;;;;14.88;13.10;;;6.50;99.90;;;;;;5020152;28;20041;-63
2022/04/12 04:17:32;;;;;;;14.73;13.13;;;6.40;99.90;;;;;;5020038;28;20045;-63
2022/04/12 04:19:58;;;;;;;15.32;12.15;;;6.50;99.90;;;;;;5020218;28;20055;-57
2022/04/12 04:22:24;;;;;;;14.25;12.40;;;6.40;99.90;;;;;;5021549;28;20128;-57
2022/04/12 04:24:50;;;;;;;14.20;12.60;;;6.50;99.90;;;;;;5007918;28;20132;-63
2022/04/12 04:27:16;;;;;;;13.52;12.00;;;6.50;99.90;;;;;;5020538;28;20179;-64
2022/04/12 04:29:42;;;;;;;13.73;12.18;;;6.50;99.90;;;;;;5018705;28;20053;-63
2022/04/12 04:32:09;;;;;;;13.63;11.05;;;6.40;99.90;;;;;;5019488;28;20047;-63
2022/04/12 04:34:35;;;;;;;14.45;12.65;;;6.50;99.90;;;;;;5016826;28;20053;-63
2022/04/12 04:37:01;;;;;;;14.35;12.82;;;6.50;99.90;;;;;;5023793;28;20107;-57
2022/04/12 04:39:27;;;;;;;15.23;12.70;;;6.50;99.90;;;;;;5023362;28;20045;-57
2022/04/12 04:41:53;;;;;;;14.13;12.63;;;6.50;99.90;;;;;;5015429;28;20060;-55
2022/04/12 04:44:19;;;;;;;15.52;12.15;;;6.50;99.90;;;;;;4975772;28;20058;-57
2022/04/12 04:46:45;;;;;;;16.90;12.93;;;6.40;99.90;;;;;;5022115;28;20103;-57
2022/04/12 04:49:11;;;;;;;14.18;12.55;;;6.40;99.90;;;;;;5026314;28;20053;-56
2022/04/12 04:51:41;;;;;;;17.38;12.25;;;6.40;99.90;;;;;;5024689;28;20056;-56
2022/04/12 04:54:07;;;;;;;14.45;12.93;;;6.40;99.90;;;;;;5027331;28;20136;-56
2022/04/12 04:56:33;;;;;;;18.25;12.50;;;6.40;99.90;;;;;;5026561;28;20053;-56
2022/04/12 04:58:59;;;;;;;13.63;11.35;;;6.40;99.90;;;;;;5026418;28;20816;-63
2022/04/12 05:01:25;;;;;;;15.50;12.65;;;6.40;99.90;;;;;;5024393;28;20053;-56
2022/04/12 05:03:51;;;;;;;15.50;13.52;;;6.40;99.90;;;;;;5025199;28;20528;-57
2022/04/12 05:06:18;;;;;;;16.00;12.93;;;6.40;99.90;;;;;;5013996;28;20719;-56
2022/04/12 05:08:44;;;;;;;14.80;12.07;;;6.30;99.90;;;;;;5014661;28;20148;-56
2022/04/12 05:11:10;;;;;;;16.63;12.63;;;6.40;99.90;;;;;;5018604;28;20045;-58
2022/04/12 05:13:36;;;;;;;16.23;13.48;;;6.40;99.90;;;;;;5016575;28;20047;-62
2022/04/12 05:16:02;;;;;;;15.27;11.85;;;6.40;99.90;;;;;;5014664;28;20398;-62
2022/04/12 05:18:29;;;;;;;16.45;12.93;;;6.40;99.90;;;;;;5015686;28;20578;-62
2022/04/12 05:20:55;;;;;;;15.93;13.68;;;6.40;99.90;;;;;;5024752;28;20045;-62
2022/04/12 05:23:21;;;;;;;14.13;12.20;;;6.40;99.90;;;;;;5009112;28;20116;-62
2022/04/12 05:25:47;;;;;;;35.95;30.63;;;6.40;99.90;;;;;;5008243;28;20060;-63
2022/04/12 05:28:13;;;;;;;14.35;12.82;;;6.50;99.90;;;;;;5025444;28;20171;-62
2022/04/12 05:30:39;;;;;;;14.93;12.63;;;6.50;99.90;;;;;;5023726;28;20038;-62
2022/04/12 05:33:05;;;;;;;15.43;12.95;;;6.60;99.90;;;;;;5024149;28;20088;-61
2022/04/12 05:35:31;;;;;;;15.35;12.82;;;6.70;99.90;;;;;;5026028;28;20139;-63
2022/04/12 05:37:58;;;;;;;13.90;11.25;;;6.70;99.90;;;;;;5013917;28;20050;-55
2022/04/12 05:40:25;;;;;;;18.15;13.43;;;6.80;99.90;;;;;;5010837;28;20050;-63
2022/04/12 05:42:53;;;;;;;12.82;11.02;;;6.90;99.90;;;;;;5022852;28;20481;-62
2022/04/12 05:45:20;;;;;;;18.02;12.07;;;7.10;99.90;;;;;;5020738;28;20932;-63
2022/04/12 05:47:51;;;;;;;14.80;12.63;;;7.20;99.90;;;;;;5016049;28;20124;-62
2022/04/12 05:50:22;;;;;;;14.98;11.77;;;7.50;99.90;;;;;;5024453;28;20057;-58
2022/04/12 05:52:48;;;;;;;14.38;11.95;;;7.70;99.90;;;;;;5020934;28;20041;-58
2022/04/12 05:55:17;;;;;;;13.23;9.82;;;7.80;99.90;;;;;;5034689;28;20045;-58
2022/04/12 05:57:59;;;;;;;21.42;15.30;;;7.80;99.90;;;;;;5007247;28;20060;-58
2022/04/12 06:00:26;;;;;;;;;;;7.90;99.90;;;;;;5038419;28;20057;-58
2022/04/12 06:02:53;;;;;;;13.45;12.05;;;8.00;99.90;;;;;;5022381;28;20316;-58
2022/04/12 06:05:21;;;;;;;15.02;12.60;;;7.90;99.90;;;;;;4983240;28;20046;-57
2022/04/12 06:07:47;;;;;;;43.53;37.05;;;8.00;99.90;;;;;;5015107;28;20099;-54
2022/04/12 06:10:15;;;;;;;16.52;13.70;;;8.10;99.90;;;;;;5009202;28;20491;-53
2022/04/12 06:12:42;;;;;;;16.92;13.73;;;8.30;99.90;;;;;;4992123;28;20060;-51
2022/04/12 06:15:08;;;;;;;31.80;27.15;;;8.30;99.90;;;;;;5011891;28;20085;-63
2022/04/12 06:17:36;;;;;;;26.83;22.73;;;8.30;99.90;;;;;;5009266;28;20394;-63
2022/04/12 06:20:10;;;;;;;23.15;18.40;;;8.40;99.90;;;;;;5016526;28;20523;-52
2022/04/12 06:22:38;;;;;;;27.63;22.70;;;8.40;99.90;;;;;;4998098;28;20042;-53
2022/04/12 06:25:05;;;;;;;14.95;12.45;;;8.50;99.90;;;;;;5024870;28;20386;-54
2022/04/12 06:27:34;;;;;;;15.23;12.50;;;8.60;99.90;;;;;;5013971;28;20166;-55
2022/04/12 06:30:25;;;;;;;15.10;13.57;;;8.60;99.90;;;;;;5016997;28;20056;-51
2022/04/12 06:32:52;;;;;;;14.15;12.63;;;8.70;99.90;;;;;;5002771;28;20056;-62
2022/04/12 06:35:18;;;;;;;17.88;15.65;;;8.70;99.90;;;;;;5019812;28;20384;-64
2022/04/12 06:37:46;;;;;;;17.42;12.25;;;8.80;99.90;;;;;;5018327;28;20045;-63
2022/04/12 06:40:15;;;;;;;19.42;14.80;;;8.90;99.90;;;;;;5004061;28;20053;-62
2022/04/12 06:42:42;;;;;;;36.17;29.50;;;9.00;99.90;;;;;;5014384;28;20080;-63
2022/04/12 06:45:11;;;;;;;38.75;30.88;;;9.00;99.90;;;;;;5009163;28;20470;-63
2022/04/12 06:47:37;;;;;;;13.85;12.15;;;9.00;99.90;;;;;;5013907;28;20053;-52
2022/04/12 06:50:04;;;;;;;13.82;11.77;;;9.00;99.90;;;;;;5012911;28;20053;-63
2022/04/12 06:52:31;;;;;;;15.02;11.45;;;9.00;99.90;;;;;;5020862;28;20072;-63
2022/04/12 06:54:58;;;;;;;14.75;12.70;;;9.00;99.90;;;;;;5020898;28;20460;-63
2022/04/12 06:57:24;;;;;;;12.80;10.93;;;9.00;99.90;;;;;;5017626;28;20052;-63
2022/04/12 06:59:53;;;;;;;19.20;15.50;;;9.10;99.90;;;;;;5021696;28;20618;-63
2022/04/12 07:02:19;;;;;;;16.17;11.75;;;9.10;99.90;;;;;;5023291;28;20551;-63
2022/04/12 07:04:45;;;;;;;19.73;12.45;;;9.20;99.90;;;;;;5005249;28;20437;-63
2022/04/12 07:07:11;;;;;;;13.43;10.63;;;9.20;99.90;;;;;;5015344;28;20149;-63
2022/04/12 07:09:37;;;;;;;13.30;10.65;;;9.30;99.90;;;;;;5021309;28;20188;-63
2022/04/12 07:12:04;;;;;;;13.30;11.38;;;9.50;99.90;;;;;;5005612;28;20069;-64
2022/04/12 07:14:31;;;;;;;13.73;10.82;;;9.60;99.90;;;;;;4998121;28;20568;-64
2022/04/12 07:16:57;;;;;;;14.00;11.57;;;9.80;99.90;;;;;;5036824;28;20045;-64
2022/04/12 07:19:24;;;;;;;28.60;23.15;;;10.00;99.90;;;;;;5023140;28;20049;-54
2022/04/12 07:21:50;;;;;;;13.52;11.25;;;10.20;99.90;;;;;;5013696;28;20915;-55
2022/04/12 07:24:16;;;;;;;19.23;16.98;;;10.60;99.90;;;;;;5004205;28;20080;-52
2022/04/12 07:26:42;;;;;;;15.52;10.75;;;10.90;99.90;;;;;;5005059;28;20054;-53
2022/04/12 07:29:08;;;;;;;12.90;9.82;;;11.40;99.90;;;;;;5007748;28;20045;-54
2022/04/12 07:31:34;;;;;;;13.57;11.32;;;11.80;99.90;;;;;;5021198;28;20083;-54
2022/04/12 07:34:01;;;;;;;14.10;10.32;;;12.10;99.90;;;;;;5021231;28;20056;-53
2022/04/12 07:36:27;;;;;;;22.48;18.92;;;12.60;99.90;;;;;;5037817;28;20483;-50
2022/04/12 07:38:55;;;;;;;13.77;10.70;;;13.00;99.90;;;;;;5022639;28;20053;-50
2022/04/12 07:41:21;;;;;;;12.38;9.88;;;13.30;99.90;;;;;;5002682;28;20072;-64
2022/04/12 07:43:47;;;;;;;12.10;10.13;;;13.50;98.60;;;;;;5018142;28;20053;-65
2022/04/12 07:46:14;;;;;;;12.50;10.25;;;13.90;93.30;;;;;;4990097;28;20056;-64
2022/04/12 07:48:41;;;;;;;13.65;9.45;;;14.10;96.00;;;;;;5020135;28;20065;-64
2022/04/12 07:51:08;;;;;;;11.70;9.85;;;14.10;92.50;;;;;;5021336;28;20056;-64
2022/04/12 07:53:35;;;;;;;21.30;17.75;;;14.30;90.70;;;;;;5000995;28;20045;-65
2022/04/12 07:56:02;;;;;;;24.63;19.15;;;14.30;83.30;;;;;;5020935;28;20489;-63
2022/04/12 07:58:29;;;;;;;15.70;11.52;;;14.30;73.60;;;;;;5014709;28;20416;-63
2022/04/12 08:00:55;;;;;;;17.02;12.95;;;14.20;77.90;;;;;;5021856;28;20046;-63
2022/04/12 08:03:21;;;;;;;13.48;10.68;;;14.30;81.50;;;;;;5018010;28;20079;-63
2022/04/12 08:05:48;;;;;;;13.40;10.55;;;14.30;76.60;;;;;;4986004;28;20060;-62
2022/04/12 08:08:15;;;;;;;13.00;10.05;;;14.80;81.60;;;;;;5013420;28;20045;-61
2022/04/12 08:10:41;;;;;;;13.25;9.70;;;15.00;84.10;;;;;;5009695;28;20050;-61
2022/04/12 08:13:07;;;;;;;13.23;10.32;;;15.40;80.60;;;;;;4999432;28;20046;-62
2022/04/12 08:15:33;;;;;;;10.45;9.35;;;15.40;76.60;;;;;;5016258;28;20053;-62
2022/04/12 08:18:00;;;;;;;9.90;8.38;;;15.30;74.70;;;;;;5017810;28;20045;-62
2022/04/12 08:20:26;;;;;;;10.00;8.55;;;15.40;69.80;;;;;;5023892;28;20045;-61
2022/04/12 08:22:52;;;;;;;12.52;8.95;;;15.60;66.60;;;;;;5026385;28;20436;-62
2022/04/12 08:25:19;;;;;;;12.48;9.50;;;15.30;68.10;;;;;;5020048;28;20057;-61
2022/04/12 08:27:46;;;;;;;11.77;9.82;;;15.50;67.80;;;;;;5023372;28;20077;-62
2022/04/12 08:30:12;;;;;;;11.00;8.73;;;15.30;69.90;;;;;;5028271;28;20511;-62
2022/04/12 08:32:38;;;;;;;11.38;8.75;;;15.50;66.50;;;;;;5025353;28;20056;-54
2022/04/12 08:35:05;;;;;;;10.45;8.98;;;15.50;65.70;;;;;;5026217;28;20129;-62
2022/04/12 08:37:32;;;;;;;12.45;10.10;;;15.70;67.20;;;;;;5024963;28;20092;-62
2022/04/12 08:39:58;;;;;;;12.10;9.75;;;15.90;68.60;;;;;;5026494;28;20376;-61
2022/04/12 08:42:24;;;;;;;10.80;9.70;;;16.20;68.20;;;;;;5025355;28;20049;-62
2022/04/12 08:44:50;;;;;;;12.18;10.80;;;16.40;64.30;;;;;;5025268;28;20073;-54
2022/04/12 08:47:19;;;;;;;11.93;9.32;;;16.80;61.80;;;;;;5018105;28;20397;-63
2022/04/12 08:49:46;;;;;;;13.05;11.50;;;17.10;59.00;;;;;;5020609;28;20516;-54
2022/04/12 08:52:13;;;;;;;10.90;8.68;;;17.10;57.70;;;;;;5026217;28;20045;-52
2022/04/12 08:54:44;;;;;;;10.40;8.85;;;17.40;58.30;;;;;;5024911;28;20156;-63
2022/04/12 08:57:12;;;;;;;10.63;9.40;;;18.10;60.20;;;;;;5025438;28;20119;-63
2022/04/12 08:59:41;;;;;;;9.70;8.63;;;18.30;55.30;;;;;;5021029;28;20057;-63
2022/04/12 09:02:08;;;;;;;13.38;9.07;;;18.20;57.00;;;;;;5015136;28;20489;-54
2022/04/12 09:04:35;;;;;;;11.40;8.95;;;18.50;54.20;;;;;;5024226;28;20049;-64
2022/04/12 09:07:05;;;;;;;13.65;9.93;;;18.80;55.30;;;;;;5020849;28;20462;-61
2022/04/12 09:09:31;;;;;;;12.65;10.07;;;18.70;53.90;;;;;;5024278;28;20056;-55
2022/04/12 09:12:02;;;;;;;12.50;9.50;;;18.80;53.20;;;;;;4999004;28;20516;-63
2022/04/12 09:14:52;;;;;;;13.18;10.52;;;18.60;51.80;;;;;;5023064;28;20054;-56
2022/04/12 09:17:34;;;;;;;11.38;8.95;;;18.50;50.60;;;;;;5020970;28;20053;-56
2022/04/12 09:20:00;;;;;;;;;;;18.60;51.90;;;;;;5025224;28;20072;-63
2022/04/12 09:22:28;;;;;;;10.52;8.35;;;18.50;51.70;;;;;;5019788;28;19982;-54
2022/04/12 09:24:57;;;;;;;11.85;8.60;;;18.90;52.80;;;;;;5024940;28;20057;-62
2022/04/12 09:27:26;;;;;;;10.55;8.60;;;19.00;52.60;;;;;;5010245;28;20041;-54
2022/04/12 09:29:55;;;;;;;11.55;9.10;;;18.90;50.50;;;;;;5011564;28;20044;-54
2022/04/12 09:32:29;;;;;;;56.15;50.17;;;18.80;51.90;;;;;;5010724;28;20042;-52
2022/04/12 09:34:56;;;;;;;18.33;13.98;;;18.70;53.80;;;;;;5020337;28;20940;-60
2022/04/12 09:37:25;;;;;;;12.10;8.98;;;18.50;53.00;;;;;;5007771;28;20046;-51
2022/04/12 09:40:02;;;;;;;11.68;8.60;;;18.80;53.00;;;;;;5025339;28;20053;-60
2022/04/12 09:43:02;;;;;;;10.32;9.20;;;19.10;52.20;;;;;;5025784;28;20420;-54
2022/04/12 09:45:30;;;;;;;12.30;9.27;;;19.20;52.00;;;;;;5006385;28;20092;-50
2022/04/12 09:48:05;;;;;;;11.02;9.93;;;19.10;52.40;;;;;;5008424;28;20547;-52
2022/04/12 09:50:32;;;;;;;12.68;10.00;;;19.40;54.90;;;;;;5024133;28;20175;-59
2022/04/12 09:53:03;;;;;;;23.63;20.92;;;19.40;53.50;;;;;;5035327;28;20124;-52
2022/04/12 09:55:37;;;;;;;13.32;10.75;;;19.80;50.90;;;;;;5015011;28;20401;-61
2022/04/12 09:58:05;;;;;;;27.90;25.08;;;20.10;53.40;;;;;;5022072;28;20068;-61
2022/04/12 10:00:32;;;;;;;10.02;7.72;;;20.30;51.10;;;;;;5010657;28;20465;-60
2022/04/12 10:03:09;;;;;;;9.82;8.63;;;20.50;49.20;;;;;;5022284;28;20053;-60
2022/04/12 10:05:36;;;;;;;11.68;10.45;;;20.40;48.10;;;;;;5020361;28;20718;-66
2022/04/12 10:08:04;;;;;;;12.45;9.65;;;20.30;48.70;;;;;;5021153;28;20120;-64
2022/04/12 10:10:31;;;;;;;10.15;8.25;;;20.20;49.30;;;;;;5018248;28;20422;-64
2022/04/12 10:12:59;;;;;;;11.40;9.13;;;20.10;50.70;;;;;;5016081;28;20183;-65
2022/04/12 10:15:27;;;;;;;13.52;9.35;;;19.60;51.90;;;;;;5002338;28;20485;-65
2022/04/12 10:17:55;;;;;;;11.20;8.48;;;19.60;52.60;;;;;;5010073;28;20775;-65
2022/04/12 10:20:21;;;;;;;10.02;8.48;;;19.70;53.10;;;;;;5013064;28;20128;-64
2022/04/12 10:22:49;;;;;;;10.85;8.50;;;19.90;52.40;;;;;;5011293;28;20706;-64
2022/04/12 10:25:17;;;;;;;11.93;8.73;;;20.00;53.10;;;;;;5016128;28;20051;-64
2022/04/12 10:27:44;;;;;;;11.35;10.15;;;20.40;54.00;;;;;;5023013;28;20371;-64
2022/04/12 10:30:18;;;;;;;9.48;8.05;;;20.40;52.30;;;;;;5019154;28;20440;-64
2022/04/12 10:33:04;;;;;;;11.85;9.27;;;20.60;50.50;;;;;;5021966;28;20523;-64
2022/04/12 10:35:52;;;;;;;10.27;9.00;;;21.00;51.10;;;;;;5021774;28;20057;-64
2022/04/12 10:38:20;;;;;;;11.82;9.45;;;21.30;49.20;;;;;;5023601;28;20505;-64
2022/04/12 10:40:52;;;;;;;10.23;8.10;;;21.20;49.40;;;;;;5020394;28;20539;-64
2022/04/12 10:43:24;;;;;;;9.98;8.13;;;21.20;48.30;;;;;;4995344;28;20053;-63
2022/04/12 10:45:51;;;;;;;12.15;9.23;;;21.20;48.80;;;;;;5012480;28;20054;-63
2022/04/12 10:48:24;;;;;;;9.32;8.43;;;21.00;49.80;;;;;;4999466;28;20080;-63
2022/04/12 10:50:56;;;;;;;9.45;8.20;;;20.70;49.60;;;;;;5022712;28;20144;-63
2022/04/12 10:53:40;;;;;;;11.45;8.75;;;21.10;50.30;;;;;;5004567;28;20050;-63
2022/04/12 10:56:10;;;;;;;10.32;7.82;;;21.40;53.80;;;;;;5009958;28;20076;-63
2022/04/12 10:58:37;;;;;;;9.20;7.40;;;21.50;50.00;;;;;;5021203;28;20103;-63
2022/04/12 11:01:05;;;;;;;10.48;8.35;;;21.70;49.10;;;;;;5022073;28;20045;-63
2022/04/12 11:03:44;;;;;;;10.27;8.55;;;21.90;48.10;;;;;;5019324;28;20823;-64
2022/04/12 11:06:22;;;;;;;10.98;8.82;;;21.80;46.50;;;;;;5013353;28;20476;-64
2022/04/12 11:08:51;;;;;;;9.82;8.82;;;21.90;47.60;;;;;;5008506;28;20456;-62
2022/04/12 11:11:27;;;;;;;9.82;8.63;;;21.90;48.00;;;;;;5022820;28;20509;-57
2022/04/12 11:13:55;;;;;;;10.30;8.15;;;21.90;47.10;;;;;;5016942;28;20054;-63
2022/04/12 11:16:25;;;;;;;11.65;8.80;;;21.70;47.20;;;;;;5001395;28;20056;-57
2022/04/12 11:19:02;;;;;;;18.38;8.55;;;21.60;47.40;;;;;;5005887;28;20052;-57
2022/04/12 11:21:58;;;;;;;10.90;8.48;;;21.90;47.80;;;;;;5022932;28;20049;-64
2022/04/12 11:24:25;;;;;;;13.70;8.68;;;21.70;46.80;;;;;;5023133;28;20504;-57
2022/04/12 11:27:07;;;;;;;10.35;8.20;;;21.70;48.30;;;;;;5022316;28;20053;-63
2022/04/12 11:29:34;;;;;;;10.75;8.27;;;21.50;47.60;;;;;;5014023;28;20049;-64
2022/04/12 11:32:01;;;;;;;10.70;8.60;;;21.30;49.10;;;;;;5019906;28;20053;-57
2022/04/12 11:34:29;;;;;;;10.65;9.05;;;21.20;50.10;;;;;;5017800;28;20045;-63
2022/04/12 11:36:59;;;;;;;12.70;8.75;;;21.10;50.50;;;;;;5022727;28;20048;-57
2022/04/12 11:39:28;;;;;;;12.43;9.27;;;21.00;50.20;;;;;;5022799;28;20120;-64
2022/04/12 11:42:01;;;;;;;11.52;8.80;;;21.20;50.90;;;;;;5023600;28;20081;-63
2022/04/12 11:44:27;;;;;;;11.23;9.07;;;21.30;50.50;;;;;;5020988;28;20053;-64
2022/04/12 11:47:02;;;;;;;11.32;9.18;;;21.50;50.40;;;;;;5005585;28;20053;-58
2022/04/12 11:49:33;;;;;;;11.38;9.48;;;21.80;50.50;;;;;;5019908;28;20049;-64
2022/04/12 11:52:01;;;;;;;12.77;10.10;;;21.60;49.30;;;;;;5009582;28;20044;-64
2022/04/12 11:54:29;;;;;;;10.65;9.23;;;21.60;51.40;;;;;;4986654;28;20057;-63
2022/04/12 11:57:03;;;;;;;12.57;9.57;;;21.50;50.20;;;;;;5008725;28;20045;-63
2022/04/12 11:59:44;;;;;;;12.45;9.40;;;21.60;54.00;;;;;;5021449;28;20052;-63
2022/04/12 12:02:12;;;;;;;32.70;12.82;;;21.60;52.50;;;;;;4985616;28;20081;-63
2022/04/12 12:04:45;;;;;;;14.88;9.90;;;21.60;53.10;;;;;;5022115;28;20050;-57
2022/04/12 12:07:11;;;;;;;16.20;10.07;;;21.70;50.30;;;;;;5021668;28;20050;-57
2022/04/12 12:09:39;;;;;;;13.23;10.27;;;21.80;50.70;;;;;;5022655;28;20053;-57
2022/04/12 12:12:07;;;;;;;12.43;9.75;;;21.80;50.50;;;;;;5023190;28;20049;-57
2022/04/12 12:14:35;;;;;;;11.45;9.68;;;22.10;50.20;;;;;;5020695;28;20064;-58
2022/04/12 12:17:08;;;;;;;13.85;10.60;;;22.30;49.60;;;;;;5020621;28;20053;-62
2022/04/12 12:19:38;;;;;;;12.77;10.50;;;22.40;48.00;;;;;;5021280;28;20075;-63
2022/04/12 12:22:07;;;;;;;13.93;10.23;;;22.60;48.70;;;;;;5021645;28;20164;-63
2022/04/12 12:24:37;;;;;;;13.20;10.90;;;22.70;49.20;;;;;;5023125;28;20142;-63
2022/04/12 12:27:05;;;;;;;12.60;9.60;;;22.60;49.30;;;;;;5021440;28;20535;-63
2022/04/12 12:29:36;;;;;;;11.52;9.82;;;22.40;48.20;;;;;;5021888;28;20060;-63
2022/04/12 12:32:02;;;;;;;14.23;10.02;;;22.20;51.30;;;;;;5021371;28;20719;-63
2022/04/12 12:34:30;;;;;;;12.82;9.27;;;22.40;49.90;;;;;;5011808;28;20049;-62
2022/04/12 12:36:57;;;;;;;14.40;10.93;;;22.60;49.20;;;;;;5013295;28;20757;-62
2022/04/12 12:39:27;;;;;;;14.65;11.07;;;23.20;50.60;;;;;;5022737;28;20104;-63
2022/04/12 12:41:57;;;;;;;12.98;8.85;;;23.30;48.20;;;;;;5023668;28;20049;-64
2022/04/12 12:44:25;;;;;;;12.30;8.98;;;23.50;46.00;;;;;;5004342;28;20137;-62
2022/04/12 12:46:59;;;;;;;12.07;8.55;;;23.70;48.70;;;;;;4994531;28;20464;-63